Time;durP1;ratioP1;P1;durP2;ratioP2;P2;SDS_P1;SDS_P2;PMS_P1;PMS_P2;Temp;Humidity;BMP_temperature;BMP_pressure;BME280_temperature;BME280_humidity;BME280_pressure;Samples;Min_cycle;Max_cycle;Signal;HPM_P1;HPM_P2
2022/01/26 00:06:07;;;;;;;16.60;8.00;;;-1.60;99.90;;;;;;5115003;28;20092;-81
2022/01/26 00:08:33;;;;;;;;;;;-1.60;99.90;;;;;;5115029;28;20027;-81
2022/01/26 00:10:58;;;;;;;16.77;6.38;;;-1.60;99.90;;;;;;5096253;28;19903;-82
2022/01/26 00:13:24;;;;;;;15.00;6.68;;;-1.70;99.90;;;;;;5114333;28;20027;-81
2022/01/26 00:15:50;;;;;;;16.65;7.22;;;-1.70;99.90;;;;;;5095834;28;20506;-81
2022/01/26 00:18:18;;;;;;;19.15;8.60;;;-1.70;99.90;;;;;;5114097;28;20080;-81
2022/01/26 00:20:57;;;;;;;17.23;7.22;;;-1.70;99.90;;;;;;5114460;28;20086;-81
2022/01/26 00:26:06;;;;;;;17.63;7.28;;;-1.70;99.90;;;;;;5114659;28;20040;-81
2022/01/26 00:28:45;;;;;;;14.00;7.05;;;-1.70;99.90;;;;;;5114495;28;20034;-81
2022/01/26 00:39:23;;;;;;;15.32;7.65;;;-1.70;99.90;;;;;;5118315;28;20043;-81
2022/01/26 00:41:49;;;;;;;13.20;7.57;;;-1.70;99.90;;;;;;5118147;28;20028;-81
2022/01/26 00:44:15;;;;;;;17.42;7.68;;;-1.70;99.90;;;;;;5117698;28;20039;-81
2022/01/26 00:46:47;;;;;;;17.50;8.80;;;-1.70;99.90;;;;;;5099076;28;20024;-81
2022/01/26 00:49:16;;;;;;;18.33;8.00;;;-1.80;99.90;;;;;;5100646;28;20031;-82
2022/01/26 00:51:42;;;;;;;15.52;7.95;;;-1.80;99.90;;;;;;5118135;28;20028;-82
2022/01/26 00:54:09;;;;;;;18.50;8.35;;;-1.80;99.90;;;;;;5098868;28;20123;-82
2022/01/26 00:56:35;;;;;;;18.77;8.38;;;-1.80;99.90;;;;;;5117321;28;20459;-82
2022/01/26 00:59:02;;;;;;;20.75;8.20;;;-1.90;99.90;;;;;;5117566;28;20035;-82
2022/01/26 01:01:28;;;;;;;23.02;9.13;;;-1.80;99.90;;;;;;5116344;28;20534;-81
2022/01/26 01:03:54;;;;;;;22.33;9.40;;;-1.90;99.90;;;;;;5105741;28;20122;-81
2022/01/26 01:06:29;;;;;;;20.30;9.55;;;-1.90;99.90;;;;;;5106070;28;20055;-81
2022/01/26 01:08:57;;;;;;;21.15;8.85;;;-1.90;99.90;;;;;;5096929;28;20040;-81
2022/01/26 01:11:24;;;;;;;17.33;7.47;;;-1.90;99.90;;;;;;5096525;28;20031;-81
2022/01/26 01:13:50;;;;;;;17.52;8.85;;;-2.00;99.90;;;;;;5096424;28;20023;-82
2022/01/26 01:16:20;;;;;;;17.63;7.55;;;-2.00;99.90;;;;;;5077991;28;20032;-80
2022/01/26 01:18:59;;;;;;;19.52;7.90;;;-2.00;99.90;;;;;;5083659;28;20035;-80
2022/01/26 01:27:26;;;;;;;14.57;7.13;;;-2.10;99.90;;;;;;5097162;28;20025;-81
2022/01/26 01:30:57;;;;;;;15.57;7.47;;;-2.20;99.90;;;;;;5096497;28;20021;-81
2022/01/26 01:33:03;;;;;;;17.80;8.40;;;-2.20;99.90;;;;;;5095859;28;20447;-81
2022/01/26 01:35:31;;;;;;;18.05;7.47;;;-2.20;99.90;;;;;;5117025;28;20067;-81
2022/01/26 01:38:06;;;;;;;16.33;8.48;;;-2.30;99.90;;;;;;5116670;28;20040;-81
2022/01/26 01:40:32;;;;;;;15.18;7.28;;;-2.30;99.90;;;;;;5116537;28;20055;-81
2022/01/26 01:42:57;;;;;;;15.30;7.68;;;-2.30;99.90;;;;;;5097412;28;20475;-80
2022/01/26 01:45:45;;;;;;;15.32;7.25;;;-2.30;99.90;;;;;;5116624;28;20044;-81
2022/01/26 01:48:15;;;;;;;15.30;7.38;;;-2.30;99.90;;;;;;5116442;28;20023;-81
2022/01/26 01:50:42;;;;;;;19.02;8.55;;;-2.30;99.90;;;;;;5098013;28;20079;-81
2022/01/26 01:53:13;;;;;;;20.85;8.65;;;-2.40;99.90;;;;;;5116198;28;20028;-81
2022/01/26 01:55:40;;;;;;;17.88;8.40;;;-2.40;99.90;;;;;;5116387;28;20024;-81
2022/01/26 01:58:06;;;;;;;17.08;7.38;;;-2.50;99.90;;;;;;5116380;28;20031;-81
2022/01/26 02:00:32;;;;;;;15.27;7.15;;;-2.50;99.90;;;;;;5116390;28;20035;-81
2022/01/26 02:03:00;;;;;;;14.82;7.10;;;-2.50;99.90;;;;;;5115581;28;20039;-81
2022/01/26 02:05:26;;;;;;;14.20;6.07;;;-2.50;99.90;;;;;;5097926;28;20032;-81
2022/01/26 02:07:52;;;;;;;15.35;6.60;;;-2.50;99.90;;;;;;5116230;28;20036;-81
2022/01/26 02:10:18;;;;;;;16.42;6.95;;;-2.60;99.90;;;;;;5116578;28;20080;-81
2022/01/26 02:12:49;;;;;;;19.63;7.53;;;-2.60;99.90;;;;;;5114888;28;20513;-81
2022/01/26 02:15:23;;;;;;;16.60;7.03;;;-2.60;99.90;;;;;;5116408;28;20379;-81
2022/01/26 02:55:50;;;;;;;14.50;5.95;;;-3.00;99.90;;;;;;5115044;28;20170;-81
2022/01/26 03:03:53;;;;;;;12.25;5.47;;;-3.00;99.90;;;;;;5114948;28;20438;-81
2022/01/26 03:06:27;;;;;;;14.10;6.22;;;-3.00;99.90;;;;;;5115714;28;20035;-81
2022/01/26 03:08:59;;;;;;;13.23;6.75;;;-3.00;99.90;;;;;;5115357;28;20020;-81
2022/01/26 03:11:28;;;;;;;14.82;6.78;;;-3.00;99.90;;;;;;5114854;28;20023;-81
2022/01/26 03:14:03;;;;;;;13.57;5.88;;;-3.00;99.90;;;;;;5096845;28;20440;-81
2022/01/26 03:16:42;;;;;;;14.85;6.70;;;-3.00;99.90;;;;;;5115356;28;20097;-81
2022/01/26 03:22:05;;;;;;;21.23;7.93;;;-3.10;99.90;;;;;;5115235;28;20475;-81
2022/01/26 03:30:01;;;;;;;16.33;6.60;;;-3.10;99.90;;;;;;5114442;28;20043;-81
2022/01/26 03:34:57;;;;;;;16.40;6.20;;;-3.20;99.90;;;;;;5114276;28;20028;-81
2022/01/26 03:37:29;;;;;;;18.73;7.07;;;-3.20;99.90;;;;;;5114825;28;20035;-81
2022/01/26 03:39:55;;;;;;;15.82;6.40;;;-3.20;99.90;;;;;;5096888;28;20122;-81
2022/01/26 03:42:21;;;;;;;18.23;6.35;;;-3.20;99.90;;;;;;5114577;28;20060;-80
2022/01/26 03:44:47;;;;;;;16.65;6.43;;;-3.30;99.90;;;;;;5114354;28;20039;-81
2022/01/26 03:47:13;;;;;;;15.73;6.15;;;-3.30;99.90;;;;;;5114167;28;20019;-80
2022/01/26 03:49:41;;;;;;;15.82;5.47;;;-3.30;99.90;;;;;;5114630;28;20032;-81
2022/01/26 03:52:07;;;;;;;15.10;6.45;;;-3.30;99.90;;;;;;5114547;28;20391;-80
2022/01/26 03:54:33;;;;;;;12.35;5.20;;;-3.30;99.90;;;;;;5114314;28;20502;-81
2022/01/26 03:56:59;;;;;;;10.38;4.80;;;-3.30;99.90;;;;;;5114331;28;20050;-81
2022/01/26 03:59:25;;;;;;;12.18;4.85;;;-3.40;99.90;;;;;;5114304;28;20526;-81
2022/01/26 04:01:50;;;;;;;13.55;5.28;;;-3.40;99.90;;;;;;5114282;28;20042;-80
2022/01/26 04:04:16;;;;;;;13.68;5.22;;;-3.50;99.90;;;;;;5114806;28;20035;-81
2022/01/26 04:06:42;;;;;;;16.48;5.95;;;-3.50;99.90;;;;;;5118600;28;20077;-81
2022/01/26 04:09:10;;;;;;;16.58;6.72;;;-3.50;99.90;;;;;;5118228;28;20032;-81
2022/01/26 04:11:41;;;;;;;15.18;5.35;;;-3.50;99.90;;;;;;5100082;28;20423;-81
2022/01/26 04:14:11;;;;;;;15.70;5.93;;;-3.50;99.90;;;;;;5118341;28;20102;-81
2022/01/26 04:16:39;;;;;;;12.47;4.23;;;-3.50;99.90;;;;;;5118686;28;20023;-81
2022/01/26 04:19:06;;;;;;;12.43;5.65;;;-3.50;99.90;;;;;;5118044;28;20084;-81
2022/01/26 04:24:12;;;;;;;16.05;6.07;;;-3.50;99.90;;;;;;5118550;28;20034;-81
2022/01/26 04:26:46;;;;;;;16.85;7.28;;;-3.50;99.90;;;;;;5118507;28;20030;-81
2022/01/26 04:29:18;;;;;;;17.83;6.88;;;-3.40;99.90;;;;;;5099835;28;20392;-81
2022/01/26 04:31:44;;;;;;;21.08;7.28;;;-3.50;99.90;;;;;;5100681;28;20180;-81
2022/01/26 04:34:09;;;;;;;18.45;6.78;;;-3.50;99.90;;;;;;5118048;28;20533;-81
2022/01/26 04:36:43;;;;;;;18.83;7.40;;;-3.50;99.90;;;;;;5118361;28;20024;-81
2022/01/26 04:39:13;;;;;;;18.48;6.82;;;-3.50;99.90;;;;;;5119174;28;20356;-81
2022/01/26 04:41:53;;;;;;;14.63;6.80;;;-3.50;99.90;;;;;;5118409;28;20024;-81
2022/01/26 04:44:23;;;;;;;17.77;7.73;;;-3.50;99.90;;;;;;5117635;28;20051;-81
2022/01/26 04:46:50;;;;;;;14.43;5.90;;;-3.60;99.90;;;;;;5118603;28;20031;-81
2022/01/26 04:49:16;;;;;;;17.50;7.15;;;-3.60;99.90;;;;;;5099534;28;20119;-81
2022/01/26 04:51:42;;;;;;;16.35;6.30;;;-3.60;99.90;;;;;;5117876;28;20444;-81
2022/01/26 04:54:08;;;;;;;17.23;6.28;;;-3.60;99.90;;;;;;5118310;28;20066;-80
2022/01/26 04:56:34;;;;;;;18.77;7.05;;;-3.60;99.90;;;;;;5099536;28;20040;-81
2022/01/26 04:58:59;;;;;;;16.92;6.95;;;-3.50;99.90;;;;;;5117879;28;20074;-80
2022/01/26 05:01:25;;;;;;;19.60;8.25;;;-3.50;99.90;;;;;;5117442;28;20035;-80
2022/01/26 05:03:51;;;;;;;16.95;6.95;;;-3.50;99.90;;;;;;5117445;28;20038;-80
2022/01/26 05:06:17;;;;;;;19.02;7.63;;;-3.40;99.90;;;;;;5117694;28;20023;-80
2022/01/26 05:08:42;;;;;;;19.52;8.52;;;-3.40;99.90;;;;;;5117634;28;20395;-81
2022/01/26 05:11:11;;;;;;;16.50;7.25;;;-3.40;99.90;;;;;;5117959;28;20024;-80
2022/01/26 05:13:37;;;;;;;23.63;9.23;;;-3.30;99.90;;;;;;5116897;28;20483;-81
2022/01/26 05:16:05;;;;;;;19.40;8.48;;;-3.30;99.90;;;;;;5116515;28;20111;-80
2022/01/26 05:18:32;;;;;;;22.85;9.52;;;-3.30;99.90;;;;;;5098940;28;20036;-80
2022/01/26 05:20:58;;;;;;;19.58;8.00;;;-3.30;99.90;;;;;;5117254;28;20038;-81
2022/01/26 05:23:23;;;;;;;19.33;7.60;;;-3.30;99.90;;;;;;5117361;28;20099;-80
2022/01/26 05:25:49;;;;;;;20.58;7.80;;;-3.30;99.90;;;;;;5117341;28;20472;-80
2022/01/26 05:28:15;;;;;;;20.17;7.90;;;-3.30;99.90;;;;;;5117371;28;20392;-80
2022/01/26 05:30:41;;;;;;;16.70;7.45;;;-3.20;99.90;;;;;;5117500;28;20388;-80
2022/01/26 05:33:07;;;;;;;24.73;9.05;;;-3.30;99.90;;;;;;5117036;28;20031;-80
2022/01/26 05:35:33;;;;;;;21.80;8.38;;;-3.20;99.90;;;;;;5116779;28;20028;-80
2022/01/26 05:37:59;;;;;;;19.83;8.10;;;-3.20;99.90;;;;;;5117149;28;20069;-80
2022/01/26 05:40:26;;;;;;;25.15;9.02;;;-3.20;99.90;;;;;;5116935;28;20024;-80
2022/01/26 05:42:52;;;;;;;23.45;9.70;;;-3.30;99.90;;;;;;5116618;28;20494;-80
2022/01/26 05:45:35;;;;;;;27.15;10.88;;;-3.30;99.90;;;;;;5098424;28;20059;-80
2022/01/26 05:48:09;;;;;;;26.48;10.00;;;-3.30;99.90;;;;;;5116439;28;20031;-80
2022/01/26 05:50:34;;;;;;;26.83;8.70;;;-3.30;99.90;;;;;;5116507;28;20399;-80
2022/01/26 05:53:00;;;;;;;29.08;10.23;;;-3.30;99.90;;;;;;5116706;28;20028;-80
2022/01/26 05:55:26;;;;;;;27.85;9.98;;;-3.30;99.90;;;;;;5098280;28;20032;-80
2022/01/26 05:57:52;;;;;;;21.83;8.75;;;-3.30;99.90;;;;;;5116431;28;20027;-80
2022/01/26 06:00:18;;;;;;;19.52;7.95;;;-3.30;99.90;;;;;;5115985;28;20396;-79
2022/01/26 06:02:44;;;;;;;22.17;8.95;;;-3.30;99.90;;;;;;5116493;28;20031;-79
2022/01/26 06:05:10;;;;;;;19.58;7.50;;;-3.40;99.90;;;;;;5116363;28;20052;-80
2022/01/26 06:07:36;;;;;;;19.80;8.95;;;-3.40;99.90;;;;;;5116748;28;20051;-80
2022/01/26 06:10:02;;;;;;;21.63;9.80;;;-3.40;99.90;;;;;;5116844;28;20386;-80
2022/01/26 06:12:29;;;;;;;21.92;8.68;;;-3.40;99.90;;;;;;5116147;28;20031;-78
2022/01/26 06:14:56;;;;;;;26.77;13.05;;;-3.40;99.90;;;;;;5116079;28;20059;-80
2022/01/26 06:17:22;;;;;;;34.22;13.07;;;-3.40;99.90;;;;;;5116440;28;20084;-80
2022/01/26 06:19:47;;;;;;;29.98;10.55;;;-3.30;99.90;;;;;;5097923;28;20032;-80
2022/01/26 06:22:13;;;;;;;23.70;9.13;;;-3.30;99.90;;;;;;5115740;28;20036;-79
2022/01/26 06:24:39;;;;;;;27.20;11.02;;;-3.30;99.90;;;;;;5116048;28;20020;-80
2022/01/26 06:27:05;;;;;;;41.67;14.93;;;-3.40;99.90;;;;;;5115683;28;20565;-80
2022/01/26 06:29:31;;;;;;;34.20;13.52;;;-3.40;99.90;;;;;;5116095;28;20028;-80
2022/01/26 06:31:57;;;;;;;33.88;11.48;;;-3.40;99.90;;;;;;5097386;28;20190;-80
2022/01/26 06:34:23;;;;;;;226.35;58.13;;;-3.40;99.90;;;;;;5097380;28;20044;-80
2022/01/26 06:36:49;;;;;;;96.97;29.25;;;-3.50;99.90;;;;;;5116779;28;20119;-80
2022/01/26 06:39:14;;;;;;;38.30;12.75;;;-3.50;99.90;;;;;;5115579;28;20031;-80
2022/01/26 06:41:50;;;;;;;35.72;15.40;;;-3.50;99.90;;;;;;5115242;28;20031;-80
2022/01/26 06:44:23;;;;;;;38.67;12.13;;;-3.50;99.90;;;;;;5114992;28;20040;-80
2022/01/26 06:49:28;;;;;;;25.98;10.57;;;-3.80;99.90;;;;;;5115411;28;20028;-79
2022/01/26 06:51:55;;;;;;;30.40;11.32;;;-3.80;99.90;;;;;;5096787;28;20043;-80
2022/01/26 06:54:21;;;;;;;29.50;10.52;;;-3.90;99.90;;;;;;5114925;28;20031;-80
2022/01/26 06:56:47;;;;;;;26.13;9.68;;;-3.90;99.90;;;;;;5115095;28;20028;-80
2022/01/26 06:59:13;;;;;;;26.83;10.23;;;-3.90;99.90;;;;;;5096395;28;20106;-80
2022/01/26 07:01:40;;;;;;;28.13;9.43;;;-3.90;99.90;;;;;;5114914;28;20498;-80
2022/01/26 07:04:06;;;;;;;23.58;9.27;;;-3.90;99.90;;;;;;5114612;28;20039;-80
2022/01/26 07:06:31;;;;;;;26.02;9.45;;;-3.90;99.90;;;;;;5115015;28;20023;-80
2022/01/26 07:08:57;;;;;;;34.53;13.27;;;-4.00;99.90;;;;;;5115047;28;20027;-80
2022/01/26 07:11:23;;;;;;;26.85;10.13;;;-4.00;99.90;;;;;;5114907;28;20494;-80
2022/01/26 07:13:52;;;;;;;32.78;14.02;;;-4.10;99.90;;;;;;5114633;28;20380;-79
2022/01/26 07:21:47;;;;;;;30.70;13.57;;;-3.90;99.90;;;;;;5115281;28;20466;-80
2022/01/26 07:24:13;;;;;;;30.30;13.07;;;-3.90;99.90;;;;;;5114382;28;20032;-80
2022/01/26 07:26:39;;;;;;;23.50;9.82;;;-3.80;99.90;;;;;;5115022;28;20051;-80
2022/01/26 07:29:10;;;;;;;22.48;9.32;;;-3.80;99.90;;;;;;5096319;28;20036;-79
2022/01/26 07:31:38;;;;;;;17.38;7.55;;;-3.80;99.90;;;;;;5114626;28;20089;-79
2022/01/26 07:34:04;;;;;;;15.48;6.28;;;-3.80;99.90;;;;;;5114031;28;20019;-80
2022/01/26 07:36:29;;;;;;;17.60;7.80;;;-3.80;99.90;;;;;;5114993;28;20080;-80
2022/01/26 07:39:05;;;;;;;20.70;8.15;;;-3.80;99.90;;;;;;5095454;28;20035;-80
2022/01/26 07:41:30;;;;;;;23.58;9.15;;;-3.70;99.90;;;;;;5114992;28;20080;-80
2022/01/26 07:43:56;;;;;;;15.10;6.85;;;-3.70;99.90;;;;;;5114059;28;20036;-80
2022/01/26 07:46:22;;;;;;;13.10;6.25;;;-3.60;99.90;;;;;;5114375;28;20107;-80
2022/01/26 07:48:48;;;;;;;16.73;7.75;;;-3.60;99.90;;;;;;5114160;28;20023;-80
2022/01/26 07:51:14;;;;;;;20.55;8.65;;;-3.60;99.90;;;;;;5114327;28;20031;-80
2022/01/26 07:53:39;;;;;;;24.60;9.30;;;-3.60;99.90;;;;;;5096067;28;20028;-80
2022/01/26 07:56:05;;;;;;;16.20;7.43;;;-3.60;99.90;;;;;;5114328;28;20040;-80
2022/01/26 07:58:31;;;;;;;24.98;12.30;;;-3.50;99.90;;;;;;5114131;28;20081;-79
2022/01/26 08:00:57;;;;;;;21.95;8.85;;;-3.40;99.90;;;;;;5095814;28;20035;-80
2022/01/26 08:03:23;;;;;;;17.33;8.05;;;-3.40;99.90;;;;;;5113676;28;20036;-80
2022/01/26 08:05:49;;;;;;;16.17;8.75;;;-3.40;99.90;;;;;;5114181;28;20026;-80
2022/01/26 08:08:14;;;;;;;22.13;10.10;;;-3.40;99.90;;;;;;5114118;28;20039;-80
2022/01/26 08:10:41;;;;;;;16.58;6.88;;;-3.30;99.90;;;;;;5113995;28;20053;-80
2022/01/26 08:13:06;;;;;;;15.20;7.40;;;-3.30;99.90;;;;;;5113913;28;20028;-79
2022/01/26 08:15:32;;;;;;;15.20;7.00;;;-3.20;99.90;;;;;;5095568;28;20177;-80
2022/01/26 08:17:59;;;;;;;24.90;12.13;;;-3.20;99.90;;;;;;5114103;28;20043;-80
2022/01/26 08:20:25;;;;;;;22.70;10.55;;;-3.10;99.90;;;;;;5114197;28;20031;-80
2022/01/26 08:22:55;;;;;;;22.35;9.82;;;-3.10;99.90;;;;;;5113890;28;20031;-79
2022/01/26 08:25:22;;;;;;;19.70;8.30;;;-3.00;99.90;;;;;;5114464;28;20039;-80
2022/01/26 08:27:54;;;;;;;28.52;14.38;;;-3.00;99.90;;;;;;5114328;28;20034;-80
2022/01/26 08:30:20;;;;;;;27.13;11.57;;;-3.00;99.90;;;;;;5114040;28;20030;-80
2022/01/26 08:32:46;;;;;;;27.58;10.82;;;-3.00;99.90;;;;;;5114244;28;20030;-80
2022/01/26 08:35:12;;;;;;;18.42;7.85;;;-3.10;99.90;;;;;;5114249;28;20494;-80
2022/01/26 08:37:38;;;;;;;20.25;8.80;;;-3.20;99.90;;;;;;5114038;28;20032;-80
2022/01/26 08:40:05;;;;;;;187.07;47.90;;;-3.20;99.90;;;;;;5114584;28;20503;-80
2022/01/26 08:42:31;;;;;;;76.13;24.25;;;-3.20;99.90;;;;;;5114174;28;20031;-79
2022/01/26 08:44:57;;;;;;;31.00;11.07;;;-3.10;99.90;;;;;;5113568;28;20427;-80
2022/01/26 08:47:23;;;;;;;26.35;10.07;;;-3.20;99.90;;;;;;5113751;28;20097;-80
2022/01/26 08:49:49;;;;;;;22.77;8.88;;;-3.10;99.90;;;;;;5113582;28;20034;-80
2022/01/26 08:52:15;;;;;;;24.23;9.73;;;-3.10;99.90;;;;;;5098789;28;20036;-79
2022/01/26 08:54:40;;;;;;;23.88;9.35;;;-3.00;99.90;;;;;;5118102;28;20035;-80
2022/01/26 08:57:06;;;;;;;27.00;10.88;;;-2.90;99.90;;;;;;5117928;28;20085;-80
2022/01/26 08:59:32;;;;;;;24.35;10.27;;;-2.90;99.90;;;;;;5117385;28;20024;-80
2022/01/26 09:01:58;;;;;;;23.45;11.68;;;-2.90;99.90;;;;;;5117214;28;20369;-80
2022/01/26 09:04:23;;;;;;;25.90;10.18;;;-2.80;99.90;;;;;;5098558;28;20030;-80
2022/01/26 09:06:51;;;;;;;27.58;11.23;;;-2.80;99.90;;;;;;5117400;28;20085;-80
2022/01/26 09:09:19;;;;;;;29.88;11.88;;;-2.80;99.90;;;;;;5117137;28;20019;-80
2022/01/26 09:11:47;;;;;;;34.70;13.02;;;-2.90;99.90;;;;;;5117275;28;20024;-80
2022/01/26 09:14:17;;;;;;;28.10;11.50;;;-2.90;99.90;;;;;;5116833;28;20421;-80
2022/01/26 09:16:43;;;;;;;28.17;11.52;;;-2.90;99.90;;;;;;5117586;28;20061;-80
2022/01/26 09:19:20;;;;;;;24.15;10.88;;;-2.90;99.90;;;;;;5116700;28;20031;-80
2022/01/26 09:21:46;;;;;;;25.83;10.60;;;-2.80;99.90;;;;;;5117358;28;20467;-80
2022/01/26 09:24:12;;;;;;;23.92;10.52;;;-2.70;99.90;;;;;;5117014;28;20038;-80
2022/01/26 09:26:38;;;;;;;29.33;11.93;;;-2.70;99.90;;;;;;5116903;28;20120;-80
2022/01/26 09:29:04;;;;;;;23.45;9.77;;;-2.70;99.90;;;;;;5116674;28;20396;-80
2022/01/26 09:31:29;;;;;;;22.90;9.20;;;-2.70;99.90;;;;;;5116515;28;20027;-80
2022/01/26 09:33:55;;;;;;;24.10;9.50;;;-2.70;99.90;;;;;;5117104;28;20023;-80
2022/01/26 09:36:21;;;;;;;26.85;10.82;;;-2.60;99.90;;;;;;5098291;28;20073;-80
2022/01/26 09:38:46;;;;;;;23.05;9.70;;;-2.60;99.90;;;;;;5116565;28;20031;-80
2022/01/26 09:41:12;;;;;;;30.60;11.80;;;-2.50;99.90;;;;;;5116283;28;20051;-80
2022/01/26 09:43:39;;;;;;;30.17;11.07;;;-2.50;99.90;;;;;;5116001;28;20118;-80
2022/01/26 09:46:04;;;;;;;25.70;12.43;;;-2.50;99.90;;;;;;5097887;28;20466;-80
2022/01/26 09:48:30;;;;;;;28.90;12.43;;;-2.50;99.90;;;;;;5116074;28;20102;-80
2022/01/26 09:50:56;;;;;;;23.23;10.15;;;-2.60;99.90;;;;;;5116142;28;20030;-80
2022/01/26 09:53:28;;;;;;;23.92;9.75;;;-2.50;99.90;;;;;;5116332;28;20039;-80
2022/01/26 09:55:54;;;;;;;29.48;11.40;;;-2.50;99.90;;;;;;5116459;28;20110;-80
2022/01/26 09:58:20;;;;;;;23.13;11.02;;;-2.40;99.90;;;;;;5116999;28;20111;-80
2022/01/26 10:00:46;;;;;;;25.55;11.65;;;-2.40;99.90;;;;;;5116764;28;20036;-80
2022/01/26 10:03:14;;;;;;;30.73;13.20;;;-2.40;99.90;;;;;;5115047;28;20027;-80
2022/01/26 10:05:45;;;;;;;33.72;14.20;;;-2.40;99.90;;;;;;5116102;28;20426;-80
2022/01/26 10:09:15;;;;;;;27.55;12.70;;;-2.40;99.90;;;;;;5115822;28;20472;-80
2022/01/26 10:19:08;;;;;;;35.70;16.17;;;-2.20;99.90;;;;;;5115645;28;20416;-80
2022/01/26 10:21:44;;;;;;;;;;;-2.10;99.90;;;;;;5097962;28;20055;-80
2022/01/26 10:24:10;;;;;;;33.10;13.57;;;-2.10;99.90;;;;;;5097231;28;19957;-80
2022/01/26 10:26:36;;;;;;;39.55;16.92;;;-2.10;99.90;;;;;;5115653;28;20043;-80
2022/01/26 10:29:03;;;;;;;26.80;13.90;;;-2.00;99.90;;;;;;5115486;28;20031;-79
2022/01/26 10:31:37;;;;;;;34.17;15.55;;;-2.00;99.90;;;;;;5115524;28;20038;-79
2022/01/26 10:34:06;;;;;;;28.35;13.40;;;-1.90;99.90;;;;;;5115176;28;20152;-80
2022/01/26 10:37:05;;;;;;;28.83;13.95;;;-1.80;99.90;;;;;;5115611;28;20383;-80
2022/01/26 10:39:42;;;;;;;35.88;16.65;;;-1.80;99.90;;;;;;5115624;28;20046;-80
2022/01/26 10:42:12;;;;;;;22.73;12.68;;;-1.70;99.90;;;;;;5115073;28;20027;-80
2022/01/26 10:44:53;;;;;;;19.98;10.00;;;-1.60;99.90;;;;;;5115302;28;20040;-80
2022/01/26 10:47:33;;;;;;;20.88;9.77;;;-1.50;99.90;;;;;;5097315;28;20032;-80
2022/01/26 10:50:31;;;;;;;23.90;10.35;;;-1.50;99.90;;;;;;5114904;28;20024;-80
2022/01/26 10:53:06;;;;;;;23.27;11.27;;;-1.50;99.90;;;;;;5114841;28;20036;-80
2022/01/26 10:55:34;;;;;;;20.98;10.80;;;-1.50;99.90;;;;;;5096954;28;20115;-80
2022/01/26 10:58:01;;;;;;;28.55;13.00;;;-1.50;99.90;;;;;;5114846;28;20024;-80
2022/01/26 11:00:32;;;;;;;28.20;13.80;;;-1.40;99.90;;;;;;5115026;28;20031;-80
2022/01/26 11:02:58;;;;;;;28.35;13.25;;;-1.40;99.90;;;;;;5118354;28;20027;-80
2022/01/26 11:05:24;;;;;;;29.05;14.30;;;-1.30;99.90;;;;;;5116916;28;20115;-80
2022/01/26 11:07:50;;;;;;;25.63;13.90;;;-1.30;99.90;;;;;;5097271;28;20032;-80
2022/01/26 11:10:17;;;;;;;29.92;14.48;;;-1.20;99.90;;;;;;5114628;28;20031;-80
2022/01/26 11:12:44;;;;;;;34.90;13.65;;;-1.10;99.90;;;;;;5096311;28;20035;-79
2022/01/26 11:15:13;;;;;;;31.70;14.02;;;-1.00;99.90;;;;;;5114541;28;20031;-80
2022/01/26 11:17:43;;;;;;;27.08;13.20;;;-0.90;99.90;;;;;;5114915;28;20032;-80
2022/01/26 11:20:20;;;;;;;32.03;16.85;;;-0.80;99.90;;;;;;5097421;28;20119;-80
2022/01/26 11:22:55;;;;;;;37.33;17.00;;;-0.70;99.90;;;;;;5115533;28;20111;-80
2022/01/26 11:25:23;;;;;;;29.60;16.33;;;-0.60;99.90;;;;;;5115338;28;20046;-80
2022/01/26 11:27:50;;;;;;;31.40;16.38;;;-0.50;99.90;;;;;;5115185;28;20020;-80
2022/01/26 11:30:33;;;;;;;32.88;16.92;;;-0.40;99.90;;;;;;5114415;28;20430;-80
2022/01/26 11:33:01;;;;;;;48.53;19.30;;;-0.40;99.90;;;;;;5114200;28;20024;-80
2022/01/26 11:35:34;;;;;;;41.75;19.13;;;-0.40;99.90;;;;;;5113975;28;20484;-79
2022/01/26 11:38:27;;;;;;;37.45;16.38;;;-0.40;99.90;;;;;;5093720;28;20043;-80
2022/01/26 11:46:37;;;;;;;42.70;19.80;;;-0.10;99.90;;;;;;5094067;28;20043;-80
2022/01/26 11:49:06;;;;;;;70.80;28.80;;;0.00;99.90;;;;;;5093868;28;20089;-80
2022/01/26 11:51:52;;;;;;;73.65;28.63;;;0.10;99.90;;;;;;5093806;28;20055;-80
2022/01/26 11:54:24;;;;;;;27.95;12.20;;;0.20;99.90;;;;;;5093783;28;20032;-81
2022/01/26 11:57:07;;;;;;;37.58;16.15;;;0.30;99.90;;;;;;5093980;28;20089;-80
2022/01/26 11:59:36;;;;;;;40.40;16.55;;;0.40;99.90;;;;;;5093703;28;20024;-80
2022/01/26 12:02:08;;;;;;;27.75;12.73;;;0.40;99.90;;;;;;5101148;28;20066;-80
2022/01/26 12:04:37;;;;;;;21.17;11.90;;;0.50;99.90;;;;;;5113997;28;20483;-80
2022/01/26 12:07:21;;;;;;;26.15;13.70;;;0.50;99.90;;;;;;5095546;28;20076;-80
2022/01/26 12:09:47;;;;;;;40.15;16.88;;;0.60;99.90;;;;;;5114366;28;20023;-80
2022/01/26 12:12:20;;;;;;;29.70;13.60;;;0.60;99.90;;;;;;5095495;28;20490;-80
2022/01/26 12:15:11;;;;;;;33.08;13.43;;;0.60;99.90;;;;;;5113928;28;20067;-80
2022/01/26 12:17:56;;;;;;;22.70;11.27;;;0.70;99.90;;;;;;5113992;28;20364;-80
2022/01/26 12:34:43;;;;;;;25.05;12.23;;;1.10;99.90;;;;;;5117895;28;20111;-81
2022/01/26 12:43:02;;;;;;;33.03;15.27;;;1.50;99.90;;;;;;5118067;28;20077;-81
2022/01/26 12:45:23;;;;;;;31.60;15.48;;;1.50;99.90;;;;;;5117084;28;20036;-81
2022/01/26 12:47:56;;;;;;;32.55;15.45;;;1.60;99.90;;;;;;5117648;28;20053;-81
2022/01/26 12:50:24;;;;;;;26.30;14.50;;;1.60;99.90;;;;;;5117646;28;20383;-81
2022/01/26 12:52:52;;;;;;;30.15;15.90;;;1.60;99.90;;;;;;5100561;28;20103;-81
2022/01/26 12:55:24;;;;;;;26.05;13.30;;;1.70;99.90;;;;;;5100485;28;20035;-81
2022/01/26 12:57:49;;;;;;;24.63;12.77;;;1.80;99.90;;;;;;5099450;28;20483;-81
2022/01/26 13:00:17;;;;;;;22.30;12.40;;;1.80;99.90;;;;;;5117457;28;20032;-82
2022/01/26 13:02:43;;;;;;;24.73;11.90;;;1.80;99.90;;;;;;5116994;28;20391;-81
2022/01/26 13:05:09;;;;;;;22.33;12.27;;;1.90;99.90;;;;;;5118451;28;20030;-81
2022/01/26 13:07:36;;;;;;;23.20;11.25;;;1.90;99.90;;;;;;5117458;28;20051;-82
2022/01/26 13:10:11;;;;;;;25.70;11.20;;;1.90;99.90;;;;;;5117650;28;20108;-82
2022/01/26 13:12:37;;;;;;;22.80;12.60;;;2.00;99.90;;;;;;5117051;28;20028;-81
2022/01/26 13:15:18;;;;;;;18.50;11.95;;;2.10;99.90;;;;;;5117248;28;20107;-82
2022/01/26 13:18:02;;;;;;;20.60;11.57;;;2.20;99.90;;;;;;5117965;28;20032;-82
2022/01/26 13:21:07;;;;;;;20.17;10.80;;;2.30;99.90;;;;;;5098312;28;20036;-82
2022/01/26 13:23:37;;;;;;;18.40;10.57;;;2.40;99.90;;;;;;5116696;28;20467;-81
2022/01/26 13:39:39;;;;;;;17.45;10.10;;;3.10;99.90;;;;;;5115128;28;20110;-81
2022/01/26 13:52:59;;;;;;;23.63;11.68;;;3.20;99.90;;;;;;5099175;28;20036;-81
2022/01/26 13:55:43;;;;;;;28.85;13.27;;;3.10;99.90;;;;;;5077615;28;20127;-82
2022/01/26 14:01:03;;;;;;;28.75;11.60;;;3.00;99.90;;;;;;5116229;28;20032;-82
2022/01/26 14:03:31;;;;;;;22.30;10.70;;;2.90;99.90;;;;;;5097523;28;20032;-82
2022/01/26 14:05:57;;;;;;;19.13;10.55;;;2.80;99.90;;;;;;5115544;28;20131;-81
2022/01/26 14:08:23;;;;;;;16.48;10.00;;;2.70;99.90;;;;;;5097505;28;20475;-82
2022/01/26 14:10:49;;;;;;;23.00;9.65;;;2.70;99.90;;;;;;5097432;28;20035;-82
2022/01/26 14:13:20;;;;;;;18.38;10.15;;;2.70;99.90;;;;;;5115334;28;20027;-81
2022/01/26 14:15:49;;;;;;;15.85;6.55;;;2.60;99.90;;;;;;5097480;28;20514;-82
2022/01/26 14:20:49;;;;;;;16.98;9.40;;;2.40;99.90;;;;;;5115479;28;20032;-82
2022/01/26 14:25:57;;;;;;;;;;;2.30;99.90;;;;;;5116149;28;20051;-82
2022/01/26 14:28:30;;;;;;;12.23;7.15;;;2.20;99.90;;;;;;5097191;28;19910;-82
2022/01/26 14:55:57;;;;;;;19.05;10.43;;;2.10;99.90;;;;;;5114795;28;20042;-82
2022/01/26 15:29:58;;;;;;;16.25;9.65;;;1.70;99.90;;;;;;5084384;28;20039;-82
2022/01/26 15:32:10;;;;;;;20.52;11.70;;;1.40;99.90;;;;;;5113980;28;20070;-82
2022/01/26 15:50:26;;;;;;;19.00;9.93;;;0.60;99.90;;;;;;5102767;28;20160;-81
2022/01/26 18:14:11;;;;;;;28.88;16.85;;;-1.20;99.90;;;;;;5115986;28;20058;-76
2022/01/26 18:50:39;;;;;;;16.55;9.30;;;-1.90;99.90;;;;;;5115038;28;20115;-76
2022/01/26 18:53:05;;;;;;;16.77;8.25;;;-1.90;99.90;;;;;;5114894;28;20028;-76
2022/01/26 18:55:30;;;;;;;20.27;10.02;;;-1.80;99.90;;;;;;5115867;28;20042;-76
2022/01/26 18:57:56;;;;;;;17.05;8.88;;;-1.80;99.90;;;;;;5096593;28;20028;-76
2022/01/26 19:00:22;;;;;;;17.90;9.70;;;-1.80;99.90;;;;;;5114850;28;20427;-76
2022/01/26 19:02:47;;;;;;;16.95;9.38;;;-1.80;99.90;;;;;;5114445;28;20548;-76
2022/01/26 19:05:13;;;;;;;15.82;8.50;;;-1.70;99.90;;;;;;5096374;28;20052;-76
2022/01/26 19:07:39;;;;;;;13.75;8.07;;;-1.70;99.90;;;;;;5114903;28;20427;-76
2022/01/26 19:10:05;;;;;;;19.73;10.20;;;-1.70;99.90;;;;;;5115358;28;20027;-76
2022/01/26 19:12:34;;;;;;;15.45;8.77;;;-1.70;99.90;;;;;;5114789;28;20027;-76
2022/01/26 19:15:04;;;;;;;14.27;9.13;;;-1.70;99.90;;;;;;5114620;28;20035;-76
2022/01/26 19:17:39;;;;;;;15.38;8.65;;;-1.60;99.90;;;;;;5114883;28;20027;-76
2022/01/26 19:23:03;;;;;;;21.25;10.18;;;-1.70;99.90;;;;;;5114310;28;20031;-76
2022/01/26 19:25:34;;;;;;;25.02;12.65;;;-1.70;99.90;;;;;;5114399;28;20034;-76
2022/01/26 19:33:30;;;;;;;44.10;21.10;;;-1.80;99.90;;;;;;5114432;28;20031;-76